Time;durP1;ratioP1;P1;durP2;ratioP2;P2;SDS_P1;SDS_P2;PMS_P1;PMS_P2;Temp;Humidity;BMP_temperature;BMP_pressure;BME280_temperature;BME280_humidity;BME280_pressure;Samples;Min_cycle;Max_cycle;Signal;HPM_P1;HPM_P2
2022/08/14 00:00:45;;;;;;;6.05;3.95;;;;;;;15.41;100.00;90487.44;5034137;28;20495;-71
2022/08/14 00:03:28;;;;;;;5.88;4.63;;;;;;;15.45;100.00;90487.53;5034148;28;20044;-71
2022/08/14 00:05:55;;;;;;;5.90;4.30;;;;;;;15.43;100.00;90479.06;5034061;28;20029;-71
2022/08/14 00:08:21;;;;;;;5.45;4.03;;;;;;;15.44;100.00;90481.38;5034001;28;20099;-71
2022/08/14 00:10:47;;;;;;;4.47;2.97;;;;;;;15.49;100.00;90481.13;5034019;28;20026;-71
2022/08/14 00:13:14;;;;;;;5.63;4.18;;;;;;;15.45;100.00;90463.41;5034052;28;20148;-71
2022/08/14 00:15:45;;;;;;;4.65;3.72;;;;;;;15.51;100.00;90470.06;5032695;28;20029;-71
2022/08/14 00:18:13;;;;;;;5.78;4.22;;;;;;;15.50;100.00;90455.09;5033894;28;20088;-71
2022/08/14 00:20:40;;;;;;;6.10;3.80;;;;;;;15.68;100.00;90464.34;5033722;28;20030;-71
2022/08/14 00:23:08;;;;;;;6.20;4.30;;;;;;;15.70;100.00;90461.31;5033699;28;20470;-71
2022/08/14 00:25:34;;;;;;;6.68;4.22;;;;;;;15.65;100.00;90467.72;5033776;28;20510;-71
2022/08/14 00:28:01;;;;;;;5.03;3.70;;;;;;;15.64;100.00;90468.09;5033666;28;20033;-71
2022/08/14 00:30:27;;;;;;;7.32;4.28;;;;;;;15.64;100.00;90479.59;5032714;28;20049;-71
2022/08/14 00:32:53;;;;;;;6.28;4.45;;;;;;;15.64;100.00;90484.94;5033433;28;20091;-71
2022/08/14 00:35:18;;;;;;;5.47;4.18;;;;;;;15.51;100.00;90464.69;5033539;28;20025;-72
2022/08/14 00:37:45;;;;;;;5.07;4.03;;;;;;;15.50;100.00;90466.59;5033577;28;20088;-72
2022/08/14 00:40:13;;;;;;;7.70;5.30;;;;;;;15.43;100.00;90460.28;5033435;28;20036;-72
2022/08/14 00:42:40;;;;;;;5.10;4.03;;;;;;;15.38;100.00;90460.56;5033459;28;20079;-72
2022/08/14 00:45:08;;;;;;;5.72;4.25;;;;;;;15.33;100.00;90447.44;5033478;28;20032;-72
2022/08/14 00:47:34;;;;;;;6.35;3.97;;;;;;;15.30;100.00;90456.94;5033391;28;20030;-72
2022/08/14 00:50:01;;;;;;;7.38;4.22;;;;;;;15.35;100.00;90456.69;5033373;28;20083;-71
2022/08/14 00:52:27;;;;;;;6.25;4.32;;;;;;;15.33;100.00;90458.16;5033254;28;20476;-71
2022/08/14 00:54:54;;;;;;;6.28;3.95;;;;;;;15.31;100.00;90450.47;5033262;28;20486;-71
2022/08/14 00:57:22;;;;;;;8.60;4.93;;;;;;;15.24;100.00;90456.44;5033279;28;20033;-71
2022/08/14 00:59:47;;;;;;;7.35;4.78;;;;;;;15.28;100.00;90446.56;5033199;28;20056;-71
2022/08/14 01:02:18;;;;;;;5.05;4.00;;;;;;;15.24;100.00;90436.91;5033220;28;20488;-72
2022/08/14 01:04:45;;;;;;;5.70;3.92;;;;;;;15.29;100.00;90432.03;5033398;28;20048;-73
2022/08/14 01:07:19;;;;;;;6.03;4.55;;;;;;;15.20;100.00;90433.38;5033064;28;20063;-73
2022/08/14 01:10:11;;;;;;;6.00;4.40;;;;;;;15.30;100.00;90435.50;5033200;28;20021;-73
2022/08/14 01:12:40;;;;;;;6.15;4.60;;;;;;;15.27;100.00;90434.28;5030902;28;20511;-72
2022/08/14 01:15:07;;;;;;;7.53;4.55;;;;;;;15.22;100.00;90436.47;5032872;28;20029;-72
2022/08/14 01:23:02;;;;;;;6.78;4.35;;;;;;;14.91;100.00;90432.69;5032982;28;20037;-72
2022/08/14 01:25:28;;;;;;;6.63;4.45;;;;;;;14.85;100.00;90428.75;5032529;28;20503;-72
2022/08/14 01:27:54;;;;;;;7.63;4.65;;;;;;;14.82;100.00;90424.06;5031132;28;20041;-72
2022/08/14 01:30:26;;;;;;;7.60;4.65;;;;;;;14.74;100.00;90421.56;5032394;28;20048;-72
2022/08/14 01:32:53;;;;;;;8.93;5.07;;;;;;;14.77;100.00;90434.25;5032286;28;20559;-72
2022/08/14 01:35:18;;;;;;;9.38;4.95;;;;;;;14.81;100.00;90435.13;5032352;28;20483;-72
2022/08/14 01:37:45;;;;;;;8.10;5.60;;;;;;;14.82;100.00;90434.75;5032317;28;20032;-72
2022/08/14 01:40:11;;;;;;;6.47;4.53;;;;;;;14.85;100.00;90433.31;5032306;28;20022;-72
2022/08/14 01:42:36;;;;;;;6.55;4.50;;;;;;;14.90;100.00;90435.72;5032327;28;20124;-72
2022/08/14 01:45:10;;;;;;;7.32;4.53;;;;;;;14.91;100.00;90426.56;5032346;28;20040;-72
2022/08/14 01:47:36;;;;;;;5.90;4.30;;;;;;;14.97;100.00;90422.50;5032226;28;20033;-72
2022/08/14 01:50:01;;;;;;;6.60;4.35;;;;;;;14.96;100.00;90420.94;5030853;28;20025;-72
2022/08/14 01:52:35;;;;;;;7.97;4.47;;;;;;;15.02;100.00;90416.13;5032084;28;20471;-72
2022/08/14 01:55:05;;;;;;;5.90;4.28;;;;;;;15.03;100.00;90421.13;5032120;28;20072;-72
2022/08/14 01:57:36;;;;;;;8.93;4.13;;;;;;;15.12;100.00;90421.69;5031931;28;20502;-71
2022/08/14 02:00:17;;;;;;;5.90;3.95;;;;;;;15.15;100.00;90409.53;5031844;28;20036;-71
2022/08/14 02:02:43;;;;;;;6.18;4.10;;;;;;;15.20;100.00;90415.38;5031942;28;20029;-71
2022/08/14 02:05:13;;;;;;;6.57;4.78;;;;;;;15.18;100.00;90416.88;5031925;28;20036;-71
2022/08/14 02:07:39;;;;;;;7.30;5.47;;;;;;;15.14;100.00;90408.72;5031755;28;20385;-71
2022/08/14 02:10:07;;;;;;;7.97;5.78;;;;;;;15.12;100.00;90400.28;5031709;28;20079;-71
2022/08/14 02:12:32;;;;;;;7.97;4.88;;;;;;;15.11;100.00;90397.94;5031712;28;20100;-71
2022/08/14 02:14:59;;;;;;;9.70;5.35;;;;;;;15.09;100.00;90394.84;5031667;28;20633;-71
2022/08/14 02:17:26;;;;;;;9.15;6.40;;;;;;;15.08;100.00;90394.06;5031656;28;20064;-71
2022/08/14 02:19:52;;;;;;;9.77;5.80;;;;;;;15.05;100.00;90388.63;5031602;28;20419;-71
2022/08/14 02:22:18;;;;;;;9.48;5.72;;;;;;;14.92;100.00;90380.69;5031605;28;20044;-71
2022/08/14 02:24:44;;;;;;;10.20;6.18;;;;;;;14.84;100.00;90387.03;5031620;28;20411;-71
2022/08/14 02:27:12;;;;;;;13.60;6.53;;;;;;;14.72;100.00;90386.34;5031543;28;20030;-71
2022/08/14 02:29:39;;;;;;;10.55;6.47;;;;;;;14.65;100.00;90392.28;5031508;28;20112;-71
2022/08/14 02:32:05;;;;;;;14.52;9.10;;;;;;;14.54;100.00;90385.91;5031459;28;20158;-71
2022/08/14 02:34:35;;;;;;;11.00;6.45;;;;;;;14.59;100.00;90399.78;5030593;28;20053;-71
2022/08/14 02:37:11;;;;;;;11.38;7.03;;;;;;;14.66;100.00;90394.59;5031700;28;20032;-72
2022/08/14 02:39:44;;;;;;;10.95;6.60;;;;;;;14.66;100.00;90391.94;5031347;28;20033;-71
2022/08/14 02:42:14;;;;;;;;;;;;;;;14.64;100.00;90396.84;5031827;28;20029;-70
2022/08/14 02:44:42;;;;;;;13.75;6.80;;;;;;;14.56;100.00;90395.13;5031444;28;19920;-71
2022/08/14 02:47:07;;;;;;;12.70;6.88;;;;;;;14.52;100.00;90388.16;5030321;28;20391;-71
2022/08/14 02:49:34;;;;;;;9.02;6.30;;;;;;;14.61;100.00;90392.19;5031569;28;20083;-71
2022/08/14 02:51:59;;;;;;;14.70;7.00;;;;;;;14.62;100.00;90401.78;5031656;28;20033;-71
2022/08/14 02:54:26;;;;;;;11.52;6.85;;;;;;;14.53;100.00;90400.41;5031063;28;20021;-71
2022/08/14 02:56:53;;;;;;;17.52;7.75;;;;;;;14.46;100.00;90401.00;5031768;28;20514;-70
2022/08/14 02:59:19;;;;;;;11.80;6.78;;;;;;;14.44;100.00;90397.88;5033347;28;20061;-71
2022/08/14 03:01:46;;;;;;;12.23;7.40;;;;;;;14.52;100.00;90402.31;5033675;28;20064;-71
2022/08/14 03:04:12;;;;;;;11.63;6.15;;;;;;;14.62;100.00;90396.44;5033505;28;20462;-71
2022/08/14 03:06:39;;;;;;;9.65;6.05;;;;;;;14.68;100.00;90391.59;5033200;28;20017;-71
2022/08/14 03:09:04;;;;;;;10.38;5.88;;;;;;;14.72;100.00;90391.69;5032721;28;20032;-70
2022/08/14 03:11:30;;;;;;;7.53;5.65;;;;;;;14.77;100.00;90383.38;5032153;28;20045;-71
2022/08/14 03:13:56;;;;;;;8.38;6.18;;;;;;;14.83;100.00;90387.34;5031371;28;20066;-71
2022/08/14 03:16:25;;;;;;;8.60;5.72;;;;;;;14.79;100.00;90381.13;5171949;23;20111;-69
2022/08/14 03:18:54;;;;;;;8.57;6.03;;;;;;;14.73;100.00;90390.56;5031032;28;20567;-68
2022/08/14 03:21:22;;;;;;;9.35;5.57;;;;;;;14.72;100.00;90394.38;5030834;28;20040;-68
2022/08/14 03:23:57;;;;;;;8.88;5.45;;;;;;;14.75;100.00;90396.34;5044277;28;20029;-68
2022/08/14 03:26:24;;;;;;;11.20;5.45;;;;;;;14.70;100.00;90383.22;5050556;28;20025;-68
2022/08/14 03:28:51;;;;;;;10.88;5.53;;;;;;;14.72;100.00;90397.81;5050821;28;20456;-69
2022/08/14 03:31:21;;;;;;;8.95;5.50;;;;;;;14.64;100.00;90402.22;5050010;28;20473;-69
2022/08/14 03:33:47;;;;;;;6.70;4.82;;;;;;;14.66;100.00;90404.53;5050726;28;20036;-69
2022/08/14 03:36:15;;;;;;;7.55;5.47;;;;;;;14.70;100.00;90415.34;5031014;28;20028;-73
2022/08/14 03:38:42;;;;;;;8.63;5.22;;;;;;;14.80;100.00;90414.81;5030695;28;20491;-70
2022/08/14 03:41:13;;;;;;;8.90;5.00;;;;;;;14.87;100.00;90409.66;5030867;28;20096;-70
2022/08/14 03:43:40;;;;;;;6.78;5.13;;;;;;;15.00;100.00;90421.81;5031063;28;20041;-69
2022/08/14 03:46:06;;;;;;;10.00;5.90;;;;;;;15.09;100.00;90421.63;5030806;28;20105;-69
2022/08/14 03:48:31;;;;;;;7.88;4.78;;;;;;;15.10;100.00;90431.22;5030666;28;20112;-69
2022/08/14 03:50:58;;;;;;;9.00;5.80;;;;;;;15.06;100.00;90423.09;5030757;28;20112;-70
2022/08/14 03:53:24;;;;;;;10.10;5.25;;;;;;;15.09;100.00;90425.09;5043420;28;20040;-71
2022/08/14 03:55:49;;;;;;;7.50;5.43;;;;;;;15.11;100.00;90425.50;5050559;28;20055;-69
2022/08/14 03:58:16;;;;;;;7.88;5.35;;;;;;;15.21;100.00;90418.84;5050480;28;20021;-68
2022/08/14 04:00:44;;;;;;;9.02;6.25;;;;;;;15.18;100.00;90420.31;5050710;28;20112;-70
2022/08/14 04:03:11;;;;;;;9.50;5.57;;;;;;;15.30;100.00;90427.47;5050515;28;20021;-69
2022/08/14 04:05:37;;;;;;;7.97;5.47;;;;;;;15.37;100.00;90434.91;5051004;28;20069;-68
2022/08/14 04:08:07;;;;;;;8.10;5.78;;;;;;;15.36;100.00;90436.81;5053922;28;20064;-68
2022/08/14 04:10:33;;;;;;;9.98;5.85;;;;;;;15.35;100.00;90437.16;5054002;28;20025;-68
2022/08/14 04:13:00;;;;;;;8.82;5.50;;;;;;;15.38;100.00;90444.50;5054005;28;20040;-68
2022/08/14 04:15:26;;;;;;;8.95;6.15;;;;;;;15.39;100.00;90440.69;5053552;28;20021;-68
2022/08/14 04:17:52;;;;;;;8.13;5.35;;;;;;;15.49;100.00;90434.78;5053541;28;20063;-68
2022/08/14 04:20:19;;;;;;;8.30;5.53;;;;;;;15.54;100.00;90431.81;5053846;28;20029;-67
2022/08/14 04:22:44;;;;;;;7.97;5.95;;;;;;;15.58;100.00;90435.34;5053813;28;20048;-68
2022/08/14 04:25:10;;;;;;;9.18;5.35;;;;;;;15.51;100.00;90433.31;5053800;28;20029;-67
2022/08/14 04:27:36;;;;;;;7.82;5.45;;;;;;;15.60;100.00;90440.41;5053606;28;20028;-67
2022/08/14 04:30:04;;;;;;;9.13;5.88;;;;;;;15.50;100.00;90447.84;5053443;28;20128;-67
2022/08/14 04:32:32;;;;;;;8.77;5.65;;;;;;;15.48;100.00;90447.41;5053342;28;20025;-68
2022/08/14 04:34:59;;;;;;;9.02;5.65;;;;;;;15.48;100.00;90443.97;5053412;28;20072;-68
2022/08/14 04:45:41;;;;;;;10.32;5.20;;;;;;;15.51;100.00;90454.75;5053659;28;20418;-70
2022/08/14 04:48:13;;;;;;;7.28;5.38;;;;;;;15.64;100.00;90444.72;5053246;28;20021;-67
2022/08/14 04:50:39;;;;;;;8.70;5.45;;;;;;;15.68;100.00;90444.78;5053363;28;20091;-69
2022/08/14 04:53:05;;;;;;;6.85;4.45;;;;;;;15.75;100.00;90445.72;5053418;28;20117;-68
2022/08/14 04:55:32;;;;;;;5.05;4.05;;;;;;;15.86;100.00;90446.72;5053332;28;20481;-68
2022/08/14 04:57:58;;;;;;;7.05;4.85;;;;;;;16.00;100.00;90448.13;5053343;28;20412;-68
2022/08/14 05:00:23;;;;;;;27.75;15.80;;;;;;;15.96;100.00;90447.31;5053121;28;20028;-68
2022/08/14 05:02:49;;;;;;;6.47;5.05;;;;;;;16.07;100.00;90440.22;5053139;28;20052;-68
2022/08/14 05:05:15;;;;;;;42.28;20.55;;;;;;;16.18;100.00;90443.91;5053158;28;20128;-68
2022/08/14 05:07:41;;;;;;;7.82;4.60;;;;;;;16.15;100.00;90450.75;5052762;28;20025;-69
2022/08/14 05:10:07;;;;;;;7.28;4.70;;;;;;;16.31;100.00;90447.22;5053333;28;20398;-69
2022/08/14 05:12:33;;;;;;;17.67;9.88;;;;;;;16.51;100.00;90429.94;5052959;28;20029;-69
2022/08/14 05:14:58;;;;;;;67.60;36.33;;;;;;;16.67;100.00;90427.19;5052842;28;20113;-69
2022/08/14 05:17:25;;;;;;;17.20;9.45;;;;;;;16.89;100.00;90428.34;5052309;28;20109;-69
2022/08/14 05:19:51;;;;;;;44.60;23.70;;;;;;;17.12;100.00;90428.31;5052754;28;20025;-69
2022/08/14 05:22:18;;;;;;;11.00;7.65;;;;;;;17.28;100.00;90418.97;5052531;28;20033;-69
2022/08/14 05:24:46;;;;;;;11.52;7.50;;;;;;;17.41;100.00;90424.94;5052624;28;20033;-69
2022/08/14 05:27:12;;;;;;;13.00;7.35;;;;;;;17.45;100.00;90417.69;5052346;28;20107;-68
2022/08/14 05:29:37;;;;;;;6.78;4.90;;;;;;;17.73;100.00;90419.25;5052599;28;20179;-68
2022/08/14 05:32:06;;;;;;;6.60;5.25;;;;;;;17.87;100.00;90425.59;5052511;28;20553;-69
2022/08/14 05:34:32;;;;;;;7.30;4.80;;;;;;;18.07;100.00;90412.00;5052384;28;20033;-68
2022/08/14 05:37:01;;;;;;;7.60;4.93;;;;;;;18.46;100.00;90417.81;5052604;28;20017;-68
2022/08/14 05:39:28;;;;;;;6.03;4.45;;;;;;;18.75;100.00;90424.31;5052436;28;20033;-68
2022/08/14 05:41:53;;;;;;;10.43;5.25;;;;;;;18.83;100.00;90426.72;5052334;28;20391;-68
2022/08/14 05:44:19;;;;;;;6.78;4.60;;;;;;;19.10;100.00;90427.34;5052268;28;20040;-68
2022/08/14 05:46:44;;;;;;;7.18;4.85;;;;;;;19.18;100.00;90428.16;5052039;28;20106;-68
2022/08/14 05:49:10;;;;;;;6.43;5.70;;;;;;;19.34;100.00;90428.69;5052183;28;20033;-68
2022/08/14 05:51:35;;;;;;;6.88;5.15;;;;;;;18.98;100.00;90438.41;5052122;28;20510;-68
2022/08/14 05:54:01;;;;;;;8.80;5.68;;;;;;;18.42;100.00;90428.56;5052109;28;20383;-68
2022/08/14 05:56:26;;;;;;;10.95;6.40;;;;;;;18.25;100.00;90438.00;5051864;28;20028;-68
2022/08/14 05:58:53;;;;;;;9.00;6.13;;;;;;;18.31;100.00;90435.75;5051862;28;20029;-68
2022/08/14 06:01:18;;;;;;;9.90;6.60;;;;;;;18.25;100.00;90438.00;5051934;28;20105;-68
2022/08/14 06:03:44;;;;;;;8.95;6.85;;;;;;;17.95;100.00;90434.53;5051990;28;20116;-68
2022/08/14 06:06:10;;;;;;;12.25;7.78;;;;;;;18.00;100.00;90436.94;5051677;28;20021;-68
2022/08/14 06:08:35;;;;;;;10.32;6.57;;;;;;;17.80;100.00;90438.19;5051850;28;20094;-68
2022/08/14 06:11:06;;;;;;;11.50;8.02;;;;;;;17.66;100.00;90444.88;5051792;28;20068;-68
2022/08/14 06:13:35;;;;;;;13.43;7.70;;;;;;;17.49;100.00;90444.63;5051810;28;20040;-68
2022/08/14 06:16:00;;;;;;;10.23;7.22;;;;;;;17.28;100.00;90448.56;5051557;28;20021;-68
2022/08/14 06:18:26;;;;;;;15.75;8.70;;;;;;;17.24;100.00;90449.63;5051561;28;20047;-68
2022/08/14 06:20:52;;;;;;;13.80;8.25;;;;;;;17.26;100.00;90452.75;5051656;28;20498;-68
2022/08/14 06:23:17;;;;;;;15.70;8.70;;;;;;;17.21;100.00;90450.38;5051852;28;20025;-68
2022/08/14 06:25:46;;;;;;;18.25;10.52;;;;;;;17.04;100.00;90446.22;5051869;28;20063;-68
2022/08/14 06:28:22;;;;;;;17.63;9.90;;;;;;;16.93;100.00;90440.69;5050778;28;20391;-67
2022/08/14 06:30:49;;;;;;;16.40;9.77;;;;;;;17.09;100.00;90450.53;5051515;28;20463;-68
2022/08/14 06:33:16;;;;;;;18.45;10.35;;;;;;;17.10;100.00;90452.09;5051228;28;20112;-68
2022/08/14 06:35:43;;;;;;;19.50;10.80;;;;;;;17.09;100.00;90455.91;5051509;28;20025;-68
2022/08/14 06:38:14;;;;;;;20.50;10.77;;;;;;;16.88;100.00;90454.41;5051353;28;20099;-68
2022/08/14 06:40:40;;;;;;;18.55;9.65;;;;;;;16.85;100.00;90452.44;5051155;28;20040;-67
2022/08/14 06:43:10;;;;;;;16.70;8.38;;;;;;;16.88;100.00;90450.94;5051605;28;20090;-67
2022/08/14 06:45:39;;;;;;;15.88;9.05;;;;;;;17.01;100.00;90453.09;5051541;28;20083;-68
2022/08/14 06:48:22;;;;;;;16.42;9.38;;;;;;;17.23;100.00;90453.47;5051173;28;20024;-68
2022/08/14 06:50:50;;;;;;;16.85;9.90;;;;;;;17.34;100.00;90451.69;5051163;28;20049;-68
2022/08/14 06:53:18;;;;;;;17.00;9.68;;;;;;;17.35;100.00;90456.72;5051281;28;20036;-68
2022/08/14 06:55:45;;;;;;;17.88;10.30;;;;;;;17.43;100.00;90451.47;5051082;28;20029;-69
2022/08/14 06:58:12;;;;;;;16.60;9.45;;;;;;;17.50;100.00;90446.94;5032560;28;20061;-68
2022/08/14 07:00:38;;;;;;;20.20;10.48;;;;;;;17.56;100.00;90448.22;5031081;28;20553;-66
2022/08/14 07:05:48;;;;;;;16.40;9.18;;;;;;;17.54;100.00;90441.66;5031058;28;20052;-67
2022/08/14 07:08:17;;;;;;;13.57;8.23;;;;;;;17.66;100.00;90450.25;5030826;28;20021;-67
2022/08/14 07:10:48;;;;;;;15.63;9.07;;;;;;;17.64;100.00;90452.53;5030629;28;20026;-69
2022/08/14 07:13:17;;;;;;;16.20;8.70;;;;;;;17.52;100.00;90444.69;5029695;28;20065;-68
2022/08/14 07:15:45;;;;;;;15.70;9.07;;;;;;;17.41;100.00;90440.28;5031082;28;20116;-67
2022/08/14 07:18:12;;;;;;;16.38;7.78;;;;;;;17.48;100.00;90438.47;5030775;28;20442;-66
2022/08/14 07:20:39;;;;;;;16.92;9.30;;;;;;;17.41;100.00;90441.06;5031503;28;20073;-68
2022/08/14 07:23:07;;;;;;;14.57;8.07;;;;;;;17.45;100.00;90449.94;5030712;28;20037;-66
2022/08/14 07:25:33;;;;;;;13.68;8.00;;;;;;;17.27;100.00;90457.75;5030418;28;20061;-68
2022/08/14 07:28:00;;;;;;;13.70;8.85;;;;;;;17.20;100.00;90451.47;5030772;28;20041;-67
2022/08/14 07:30:26;;;;;;;16.42;8.95;;;;;;;17.03;100.00;90448.13;5030893;28;20605;-68
2022/08/14 07:32:51;;;;;;;13.90;8.32;;;;;;;17.02;100.00;90446.59;5029664;28;20041;-68
2022/08/14 07:35:17;;;;;;;15.52;9.23;;;;;;;17.09;100.00;90447.84;5031098;28;20045;-68
2022/08/14 07:37:46;;;;;;;15.93;9.02;;;;;;;17.19;100.00;90458.75;5030795;28;20037;-67
2022/08/14 07:40:12;;;;;;;13.75;8.68;;;;;;;17.29;100.00;90455.47;5031920;28;20047;-67
2022/08/14 07:42:37;;;;;;;17.27;8.13;;;;;;;17.24;100.00;90457.69;5034523;28;20104;-66
2022/08/14 07:45:03;;;;;;;14.15;7.90;;;;;;;17.45;100.00;90447.25;5034816;28;20044;-66
2022/08/14 07:47:29;;;;;;;14.60;8.23;;;;;;;17.61;100.00;90455.97;5034427;28;20395;-67
2022/08/14 07:50:06;;;;;;;15.23;8.75;;;;;;;17.64;100.00;90454.44;5034435;28;20487;-67
2022/08/14 07:52:33;;;;;;;11.50;7.53;;;;;;;17.86;100.00;90458.25;5034337;28;20095;-68
2022/08/14 07:54:59;;;;;;;11.80;7.28;;;;;;;17.71;100.00;90462.66;5032786;28;20087;-67
2022/08/14 07:57:26;;;;;;;14.15;8.52;;;;;;;17.52;100.00;90455.47;5034172;28;20069;-67
2022/08/14 07:59:52;;;;;;;14.57;8.85;;;;;;;17.86;100.00;90464.41;5034287;28;20045;-68
2022/08/14 08:02:18;;;;;;;14.93;8.45;;;;;;;18.04;100.00;90464.66;5034308;28;20072;-68
2022/08/14 08:04:45;;;;;;;12.45;7.35;;;;;;;18.00;100.00;90458.47;5038353;28;20060;-69
2022/08/14 08:07:12;;;;;;;13.25;7.75;;;;;;;17.86;100.00;90459.03;5052602;28;20041;-68
2022/08/14 08:09:43;;;;;;;11.75;7.93;;;;;;;17.88;100.00;90466.75;5053269;28;20037;-67
2022/08/14 08:12:10;;;;;;;13.32;7.90;;;;;;;17.98;100.00;90462.63;5053889;28;20128;-67
2022/08/14 08:14:37;;;;;;;10.70;7.15;;;;;;;18.10;100.00;90459.72;5053659;28;20044;-67
2022/08/14 08:17:03;;;;;;;11.27;6.85;;;;;;;18.54;100.00;90454.47;5053556;28;20049;-67
2022/08/14 08:19:30;;;;;;;12.00;7.10;;;;;;;18.83;100.00;90459.06;5053601;28;20098;-67
2022/08/14 08:21:57;;;;;;;11.90;7.38;;;;;;;18.98;100.00;90453.81;5054223;28;20406;-68
2022/08/14 08:24:22;;;;;;;9.98;6.53;;;;;;;19.02;100.00;90441.13;5053223;28;20396;-67
2022/08/14 08:26:48;;;;;;;11.85;7.28;;;;;;;19.60;100.00;90448.56;5053369;28;20039;-67
2022/08/14 08:29:21;;;;;;;10.73;6.43;;;;;;;20.49;100.00;90443.66;5053656;28;20047;-67
2022/08/14 08:31:51;;;;;;;8.88;6.43;;;;;;;20.40;100.00;90441.31;5053461;28;20041;-67
2022/08/14 08:34:18;;;;;;;9.00;5.93;;;;;;;20.54;100.00;90430.56;5052322;28;20540;-67
2022/08/14 08:36:44;;;;;;;8.95;6.32;;;;;;;20.49;100.00;90439.03;5053384;28;20111;-66
2022/08/14 08:39:10;;;;;;;9.00;6.15;;;;;;;19.81;100.00;90435.22;5053073;28;20067;-66
2022/08/14 08:41:44;;;;;;;6.88;5.40;;;;;;;19.39;100.00;90435.66;5053427;28;20051;-67
2022/08/14 08:44:10;;;;;;;7.57;5.88;;;;;;;19.50;100.00;90443.84;5053346;28;20126;-67
2022/08/14 08:46:36;;;;;;;9.70;6.22;;;;;;;19.89;100.00;90434.13;5052965;28;20040;-67
2022/08/14 08:49:02;;;;;;;7.55;5.20;;;;;;;20.02;100.00;90442.66;5052881;28;20473;-67
2022/08/14 08:51:33;;;;;;;6.68;4.90;;;;;;;20.78;100.00;90439.13;5052564;28;20388;-70
2022/08/14 08:54:02;;;;;;;5.93;4.60;;;;;;;21.30;100.00;90437.69;5052747;28;20037;-71
2022/08/14 08:56:45;;;;;;;6.15;4.75;;;;;;;21.70;100.00;90433.81;5053007;28;20514;-67
2022/08/14 08:59:25;;;;;;;6.80;4.32;;;;;;;22.61;100.00;90428.59;5053084;28;20055;-67
2022/08/14 09:01:59;;;;;;;7.22;4.63;;;;;;;22.96;100.00;90419.53;5053182;28;20390;-69
2022/08/14 09:04:34;;;;;;;7.00;5.70;;;;;;;22.52;100.00;90424.75;5053129;28;20037;-67
2022/08/14 09:06:59;;;;;;;7.47;5.47;;;;;;;23.75;99.73;90432.56;5052762;28;20084;-67
2022/08/14 09:09:26;;;;;;;9.70;5.93;;;;;;;23.47;92.34;90425.41;5052718;28;20123;-67
2022/08/14 09:11:54;;;;;;;7.18;5.32;;;;;;;24.02;90.34;90425.34;5052822;28;20076;-67
2022/08/14 09:14:24;;;;;;;6.15;5.35;;;;;;;25.15;80.21;90419.03;5052712;28;20059;-67
2022/08/14 09:16:50;;;;;;;7.82;5.97;;;;;;;25.53;74.03;90427.81;5048742;28;20106;-68
2022/08/14 09:19:17;;;;;;;7.93;6.00;;;;;;;24.75;78.26;90416.00;5051462;28;20036;-68
2022/08/14 09:21:43;;;;;;;6.68;5.32;;;;;;;23.57;86.70;90403.63;5052847;28;20060;-67
2022/08/14 09:24:09;;;;;;;12.38;7.30;;;;;;;22.99;95.78;90405.16;5051473;28;20048;-67
2022/08/14 09:26:36;;;;;;;10.77;8.30;;;;;;;22.25;100.00;90402.78;5052132;28;20459;-67
2022/08/14 09:29:03;;;;;;;9.02;6.78;;;;;;;21.67;100.00;90402.13;5052302;28;20049;-67
2022/08/14 09:31:29;;;;;;;15.00;7.07;;;;;;;22.21;100.00;90391.97;5051412;28;20044;-67
2022/08/14 09:34:02;;;;;;;7.72;5.65;;;;;;;22.91;100.00;90400.19;5052244;28;20554;-67
2022/08/14 09:36:48;;;;;;;9.88;6.40;;;;;;;23.01;95.86;90400.13;5051597;28;20052;-66
2022/08/14 09:39:44;;;;;;;8.43;6.70;;;;;;;22.73;100.00;90400.28;5020145;28;20143;-67
2022/08/14 09:42:24;;;;;;;7.82;6.32;;;;;;;22.21;100.00;90394.66;4998041;28;20065;-65
2022/08/14 09:45:01;;;;;;;8.90;6.88;;;;;;;21.62;100.00;90397.13;5051204;28;20529;-66
2022/08/14 09:47:59;;;;;;;8.77;6.40;;;;;;;21.48;100.00;90399.84;5051631;28;20075;-63
2022/08/14 09:50:31;;;;;;;9.50;6.47;;;;;;;21.68;100.00;90382.00;4998224;28;20124;-65
2022/08/14 09:53:06;;;;;;;10.85;5.95;;;;;;;21.98;100.00;90394.34;5030886;28;20423;-64
2022/08/14 09:55:34;;;;;;;7.53;6.03;;;;;;;21.66;100.00;90397.88;5050643;28;20567;-65
2022/08/14 09:58:18;;;;;;;7.47;5.53;;;;;;;21.30;100.00;90412.56;5052055;28;20048;-67
2022/08/14 10:00:49;;;;;;;10.10;6.60;;;;;;;21.26;100.00;90409.09;5051111;28;20457;-68
2022/08/14 10:03:47;;;;;;;7.95;6.05;;;;;;;21.05;100.00;90410.59;5049483;28;20039;-67
2022/08/14 10:06:18;;;;;;;8.10;6.30;;;;;;;20.60;100.00;90402.00;4998458;28;20056;-66
2022/08/14 10:08:45;;;;;;;8.90;7.30;;;;;;;20.42;100.00;90398.50;5049700;28;20533;-69
2022/08/14 10:11:18;;;;;;;8.90;5.93;;;;;;;20.43;100.00;90413.53;5049885;28;20159;-66
2022/08/14 10:13:47;;;;;;;8.55;6.05;;;;;;;20.56;100.00;90411.28;5048680;28;20041;-67
2022/08/14 10:16:13;;;;;;;9.60;6.20;;;;;;;20.39;100.00;90410.03;5049408;28;20067;-67
2022/08/14 10:18:39;;;;;;;10.63;6.10;;;;;;;20.25;100.00;90407.28;5049695;28;20056;-67
2022/08/14 10:21:08;;;;;;;8.43;5.72;;;;;;;20.38;100.00;90411.19;5050363;28;20033;-68
2022/08/14 10:23:43;;;;;;;8.85;6.70;;;;;;;20.53;100.00;90406.66;5049635;28;20037;-67
2022/08/14 10:26:09;;;;;;;7.38;5.85;;;;;;;20.67;100.00;90400.47;5050424;28;20457;-66
2022/08/14 10:28:44;;;;;;;8.48;5.90;;;;;;;20.71;100.00;90385.84;5050302;28;20040;-67
2022/08/14 10:31:27;;;;;;;11.40;6.18;;;;;;;20.45;100.00;90388.84;5047022;28;20033;-66
2022/08/14 10:34:09;;;;;;;15.35;10.13;;;;;;;20.37;100.00;90385.34;5031562;28;20076;-66
2022/08/14 10:36:41;;;;;;;40.92;26.00;;;;;;;20.29;100.00;90381.03;5038995;28;20487;-65
2022/08/14 10:39:28;;;;;;;52.13;33.33;;;;;;;20.42;100.00;90384.97;5042314;28;20049;-68
2022/08/14 10:42:05;;;;;;;13.98;10.15;;;;;;;20.57;100.00;90381.16;5030729;28;20088;-67
2022/08/14 10:44:44;;;;;;;11.65;7.55;;;;;;;20.45;100.00;90370.72;5031006;28;20034;-67
2022/08/14 10:47:12;;;;;;;7.72;5.60;;;;;;;20.76;100.00;90371.16;5031041;28;20132;-67
2022/08/14 10:49:48;;;;;;;8.73;6.07;;;;;;;20.67;100.00;90368.03;5031232;28;20033;-67
2022/08/14 10:52:21;;;;;;;9.07;6.57;;;;;;;21.04;100.00;90367.72;5031162;28;20037;-67
2022/08/14 10:54:47;;;;;;;;;;;;;;;21.47;100.00;90365.81;5031561;28;20045;-67
2022/08/14 10:57:12;;;;;;;21.42;12.27;;;;;;;21.58;100.00;90357.66;5031016;28;20310;-67
2022/08/14 10:59:46;;;;;;;9.52;6.45;;;;;;;21.90;100.00;90357.59;5031244;28;20049;-70
2022/08/14 11:02:29;;;;;;;23.05;15.38;;;;;;;22.33;100.00;90350.13;5030755;28;20033;-67
2022/08/14 11:05:05;;;;;;;17.88;11.13;;;;;;;22.71;100.00;90349.13;5031047;28;20030;-68
2022/08/14 11:07:31;;;;;;;19.83;13.30;;;;;;;23.43;100.00;90343.22;5029321;28;20068;-68
2022/08/14 11:10:05;;;;;;;12.80;8.68;;;;;;;25.37;97.84;90344.00;5030887;28;20029;-68
2022/08/14 11:12:49;;;;;;;7.28;5.63;;;;;;;25.61;80.57;90342.09;5030913;28;20810;-68
2022/08/14 11:15:21;;;;;;;7.38;5.47;;;;;;;26.16;83.07;90333.31;5032897;28;20406;-68
2022/08/14 11:17:49;;;;;;;7.28;5.82;;;;;;;26.09;78.81;90338.91;5034934;28;20037;-68
2022/08/14 11:20:20;;;;;;;5.72;4.95;;;;;;;25.38;79.64;90348.28;5035261;28;20041;-68
2022/08/14 11:22:46;;;;;;;6.90;5.43;;;;;;;25.08;83.16;90349.88;5034923;28;20103;-68
2022/08/14 11:25:14;;;;;;;8.00;5.95;;;;;;;24.76;83.29;90349.53;5035298;28;20438;-68
2022/08/14 11:27:45;;;;;;;7.07;5.35;;;;;;;24.62;84.06;90347.81;5035067;28;20029;-68
2022/08/14 11:30:16;;;;;;;7.78;5.28;;;;;;;24.57;86.34;90358.34;5034818;28;20036;-69
2022/08/14 11:32:50;;;;;;;6.05;4.72;;;;;;;24.59;81.79;90354.03;5034697;28;20463;-69
2022/08/14 11:35:21;;;;;;;6.47;4.78;;;;;;;24.25;83.69;90353.28;5034770;28;20025;-69
2022/08/14 11:38:00;;;;;;;10.02;5.70;;;;;;;23.77;91.82;90354.19;5034377;28;20029;-69
2022/08/14 11:40:29;;;;;;;9.30;6.53;;;;;;;23.56;96.55;90350.47;5034712;28;20029;-69
2022/08/14 11:42:55;;;;;;;7.18;5.28;;;;;;;23.35;99.78;90345.22;5034551;28;20030;-69
2022/08/14 11:45:24;;;;;;;7.93;5.38;;;;;;;23.17;98.90;90348.06;5034632;28;20623;-69